Time;durP1;ratioP1;P1;durP2;ratioP2;P2;SDS_P1;SDS_P2;PMS_P1;PMS_P2;Temp;Humidity;BMP_temperature;BMP_pressure;BME280_temperature;BME280_humidity;BME280_pressure;Samples;Min_cycle;Max_cycle;Signal;HPM_P1;HPM_P2
2021/04/26 00:02:01;;;;;;;6.30;3.50;;;;;;;7.45;52.71;96423.31;5075201;28;20418;-85
2021/04/26 00:04:27;;;;;;;4.20;2.83;;;;;;;7.50;53.19;96405.66;5075085;28;20460;-85
2021/04/26 00:06:54;;;;;;;8.10;3.50;;;;;;;7.37;53.52;96411.75;5076057;28;20556;-85
2021/04/26 00:09:20;;;;;;;11.93;2.37;;;;;;;7.31;53.62;96405.75;5075582;28;20437;-85
2021/04/26 00:11:47;;;;;;;5.00;3.03;;;;;;;7.38;53.64;96412.47;5075848;28;20422;-86
2021/04/26 00:14:13;;;;;;;4.83;3.00;;;;;;;7.32;54.17;96399.16;5075399;28;20534;-85
2021/04/26 00:16:39;;;;;;;6.67;3.40;;;;;;;7.27;54.40;96389.25;5075782;28;20523;-87
2021/04/26 00:19:05;;;;;;;22.57;4.40;;;;;;;7.20;54.92;96397.22;5076802;28;20487;-86
2021/04/26 00:21:32;;;;;;;7.03;3.60;;;;;;;7.12;54.88;96383.69;5077052;28;20612;-85
2021/04/26 00:23:58;;;;;;;4.60;2.77;;;;;;;7.07;55.35;96384.50;5075937;28;20435;-87
2021/04/26 00:26:25;;;;;;;7.27;3.20;;;;;;;7.07;55.63;96379.16;5075767;28;20680;-87
2021/04/26 00:28:51;;;;;;;6.47;3.30;;;;;;;7.02;55.95;96377.28;5075607;28;20970;-85
2021/04/26 00:31:17;;;;;;;6.93;2.80;;;;;;;6.97;55.77;96372.75;5075580;28;20396;-85
2021/04/26 00:33:43;;;;;;;6.30;3.47;;;;;;;6.95;56.38;96381.28;5075097;28;20524;-85
2021/04/26 00:36:10;;;;;;;12.17;3.43;;;;;;;6.88;56.58;96367.78;5075464;28;20440;-85
2021/04/26 00:38:36;;;;;;;6.00;2.80;;;;;;;6.84;56.71;96370.75;5075618;28;20441;-84
2021/04/26 00:41:02;;;;;;;11.83;3.90;;;;;;;6.81;57.23;96363.03;5075593;28;20424;-85
2021/04/26 00:43:29;;;;;;;6.87;3.60;;;;;;;6.75;57.15;96365.81;5075982;28;20436;-85
2021/04/26 00:45:55;;;;;;;10.70;3.73;;;;;;;6.71;57.85;96359.28;5095370;28;20491;-85
2021/04/26 00:48:21;;;;;;;10.17;3.23;;;;;;;6.69;58.61;96356.41;5097501;28;20489;-85
2021/04/26 00:50:47;;;;;;;5.43;3.20;;;;;;;6.74;57.80;96344.84;5087599;28;20545;-87
2021/04/26 00:53:14;;;;;;;12.13;3.67;;;;;;;6.70;57.98;96339.81;5087532;28;20430;-86
2021/04/26 00:55:42;;;;;;;6.80;4.03;;;;;;;6.71;57.98;96332.47;5087343;28;20495;-85
2021/04/26 00:58:09;;;;;;;6.70;3.23;;;;;;;6.61;58.26;96334.84;5086330;28;20494;-85
2021/04/26 01:00:36;;;;;;;8.27;3.60;;;;;;;6.61;59.26;96329.47;5087124;28;20449;-85
2021/04/26 01:03:03;;;;;;;9.10;3.00;;;;;;;6.50;59.20;96331.63;5089001;28;20422;-85
2021/04/26 01:05:33;;;;;;;8.20;4.27;;;;;;;6.48;59.99;96327.50;5088667;28;20895;-86
2021/04/26 01:08:00;;;;;;;13.50;3.80;;;;;;;6.48;59.90;96316.78;5089248;28;20454;-86
2021/04/26 01:10:30;;;;;;;6.17;3.17;;;;;;;6.58;60.21;96313.72;5089922;28;20450;-87
2021/04/26 01:13:15;;;;;;;8.53;4.20;;;;;;;6.41;60.36;96312.06;5088820;28;20429;-88
2021/04/26 01:15:48;;;;;;;8.77;3.20;;;;;;;6.30;60.78;96301.50;5089057;28;20469;-86
2021/04/26 01:18:22;;;;;;;5.80;3.27;;;;;;;6.26;61.57;96295.75;5089386;28;20418;-86
2021/04/26 01:21:08;;;;;;;6.77;4.00;;;;;;;6.16;61.65;96294.69;5091154;28;20463;-86
2021/04/26 01:24:11;;;;;;;8.90;4.13;;;;;;;6.16;61.75;96294.69;5088960;28;20481;-86
2021/04/26 01:26:53;;;;;;;6.13;3.90;;;;;;;6.11;62.47;96298.16;5090614;28;20461;-85
2021/04/26 01:29:36;;;;;;;11.37;4.80;;;;;;;6.10;62.48;96290.66;5097670;28;20409;-86
2021/04/26 01:32:20;;;;;;;8.50;4.80;;;;;;;6.00;63.04;96287.63;5093596;28;20403;-84
2021/04/26 01:34:47;;;;;;;11.10;4.77;;;;;;;6.10;62.93;96286.03;5091179;28;20495;-85
2021/04/26 01:37:14;;;;;;;7.20;4.20;;;;;;;6.07;62.97;96283.63;5090299;28;20973;-88
2021/04/26 01:39:41;;;;;;;13.73;4.17;;;;;;;5.99;63.43;96288.84;5087886;28;20442;-87
2021/04/26 01:42:09;;;;;;;13.50;5.13;;;;;;;5.97;63.52;96295.97;5087652;28;20465;-85
2021/04/26 01:44:36;;;;;;;7.50;4.27;;;;;;;5.93;64.21;96306.97;5091346;28;20477;-86
2021/04/26 01:47:04;;;;;;;7.10;4.57;;;;;;;5.93;63.80;96309.66;5088962;28;21013;-87
2021/04/26 01:49:32;;;;;;;10.70;4.53;;;;;;;5.92;63.56;96297.47;5088593;28;20552;-86
2021/04/26 01:52:00;;;;;;;7.10;4.60;;;;;;;5.96;63.65;96297.19;5086234;28;20422;-87
2021/04/26 01:54:28;;;;;;;11.17;4.63;;;;;;;5.89;63.78;96293.88;5088618;28;20524;-86
2021/04/26 01:56:55;;;;;;;11.63;4.53;;;;;;;5.94;63.81;96289.69;5088161;28;20799;-86
2021/04/26 01:59:21;;;;;;;10.90;4.97;;;;;;;5.90;63.79;96289.25;5086988;28;20468;-86
2021/04/26 02:01:51;;;;;;;9.67;5.63;;;;;;;5.88;64.32;96283.69;5088557;28;20432;-86
2021/04/26 02:04:19;;;;;;;10.43;5.83;;;;;;;5.91;64.32;96291.44;5088340;28;20433;-86
2021/04/26 02:06:46;;;;;;;7.63;4.60;;;;;;;5.84;64.10;96293.94;5088322;28;20479;-87
2021/04/26 02:09:14;;;;;;;11.00;4.90;;;;;;;5.76;64.96;96285.06;5088264;28;20446;-86
2021/04/26 02:11:40;;;;;;;12.20;4.90;;;;;;;5.75;65.00;96286.28;5088046;28;20505;-87
2021/04/26 02:14:08;;;;;;;8.87;5.43;;;;;;;5.75;64.84;96291.63;5085859;28;20408;-87
2021/04/26 02:16:35;;;;;;;11.07;5.63;;;;;;;5.79;64.92;96290.13;5081874;28;21011;-87
2021/04/26 02:19:01;;;;;;;9.07;5.73;;;;;;;5.76;65.31;96293.09;5081645;28;20440;-87
2021/04/26 02:21:27;;;;;;;8.77;5.80;;;;;;;5.73;64.97;96284.09;5078699;28;20520;-87
2021/04/26 02:23:54;;;;;;;12.63;5.80;;;;;;;5.74;65.39;96287.50;5079390;28;20420;-86
2021/04/26 02:26:20;;;;;;;12.80;5.83;;;;;;;5.69;65.52;96296.34;5089605;28;20493;-85
2021/04/26 02:28:46;;;;;;;6.73;5.10;;;;;;;5.63;66.14;96298.38;5094642;28;20446;-83
2021/04/26 02:31:18;;;;;;;10.43;6.07;;;;;;;5.63;65.51;96293.75;5090037;28;20429;-83
2021/04/26 02:33:55;;;;;;;9.70;5.60;;;;;;;5.55;66.00;96287.53;5086420;28;20396;-84
2021/04/26 02:36:25;;;;;;;11.10;5.80;;;;;;;5.49;66.45;96289.56;5085885;28;20522;-84
2021/04/26 02:38:54;;;;;;;9.73;5.20;;;;;;;5.54;66.11;96288.06;5085958;28;20491;-83
2021/04/26 02:41:24;;;;;;;8.37;5.30;;;;;;;5.45;66.53;96288.41;5088765;28;20521;-83
2021/04/26 02:43:54;;;;;;;10.00;5.87;;;;;;;5.53;66.25;96279.28;5080856;28;20522;-84
2021/04/26 02:46:23;;;;;;;10.90;6.80;;;;;;;5.44;66.29;96279.66;5077170;28;20577;-82
2021/04/26 02:48:51;;;;;;;12.90;6.30;;;;;;;5.46;65.92;96282.53;5077240;28;20444;-83
2021/04/26 02:51:18;;;;;;;11.80;6.00;;;;;;;5.52;65.82;96272.50;5077294;28;20499;-84
2021/04/26 02:53:45;;;;;;;11.20;6.03;;;;;;;5.38;66.16;96279.75;5076718;28;20449;-84
2021/04/26 02:56:14;;;;;;;9.60;5.57;;;;;;;5.35;66.49;96274.69;5076603;28;20960;-83
2021/04/26 02:58:41;;;;;;;11.53;5.50;;;;;;;5.40;66.65;96271.94;5077134;28;20446;-84
2021/04/26 03:01:09;;;;;;;11.20;5.97;;;;;;;5.42;66.18;96271.41;5076719;28;21021;-84
2021/04/26 03:03:37;;;;;;;10.00;5.97;;;;;;;5.38;66.14;96261.03;5077004;28;20528;-84
2021/04/26 03:06:05;;;;;;;10.33;5.93;;;;;;;5.26;66.55;96262.38;5076681;28;21056;-85
2021/04/26 03:08:33;;;;;;;9.47;6.20;;;;;;;5.15;66.84;96248.44;5075968;28;20558;-84
2021/04/26 03:11:00;;;;;;;17.33;6.30;;;;;;;5.20;66.69;96251.03;5076186;28;20449;-83
2021/04/26 03:13:28;;;;;;;8.83;5.23;;;;;;;5.21;66.34;96251.75;5076280;28;20823;-86
2021/04/26 03:15:54;;;;;;;11.90;6.23;;;;;;;5.15;66.40;96246.50;5076874;28;20544;-86
2021/04/26 03:18:20;;;;;;;13.67;6.33;;;;;;;5.12;66.74;96244.09;5076474;28;20448;-86
2021/04/26 03:20:47;;;;;;;7.43;5.90;;;;;;;5.12;66.51;96244.09;5080294;28;20404;-85
2021/04/26 03:23:18;;;;;;;10.07;6.10;;;;;;;5.11;66.21;96245.31;5098471;28;20423;-86
2021/04/26 03:25:44;;;;;;;17.63;6.23;;;;;;;5.13;65.88;96240.94;5098268;28;20512;-83
2021/04/26 03:28:11;;;;;;;11.20;6.13;;;;;;;5.15;66.34;96238.47;5095790;28;20476;-86
2021/04/26 03:30:38;;;;;;;8.53;5.53;;;;;;;5.06;66.29;96233.47;5076582;28;20449;-86
2021/04/26 03:33:05;;;;;;;12.50;6.03;;;;;;;4.91;66.66;96235.88;5076368;28;20429;-85
2021/04/26 03:35:32;;;;;;;11.70;5.67;;;;;;;4.86;66.72;96234.69;5076598;28;20643;-84
2021/04/26 03:37:58;;;;;;;12.10;6.93;;;;;;;4.85;66.98;96227.19;5076514;28;20422;-84
2021/04/26 03:40:26;;;;;;;17.10;7.13;;;;;;;4.87;66.81;96224.72;5076198;28;20515;-84
2021/04/26 03:42:53;;;;;;;8.90;5.83;;;;;;;4.81;66.87;96226.75;5076428;28;20473;-84
2021/04/26 03:45:20;;;;;;;10.43;6.17;;;;;;;4.73;67.21;96226.59;5076805;28;20506;-84
2021/04/26 03:47:47;;;;;;;11.30;6.40;;;;;;;4.81;66.67;96224.06;5076524;28;20473;-83
2021/04/26 03:50:15;;;;;;;9.80;6.20;;;;;;;4.81;66.31;96224.81;5076168;28;20520;-86
2021/04/26 03:52:41;;;;;;;11.67;5.83;;;;;;;4.70;66.52;96221.53;5077074;28;21025;-83
2021/04/26 03:55:10;;;;;;;9.47;5.80;;;;;;;4.66;67.06;96218.44;5076836;28;20532;-85
2021/04/26 03:57:37;;;;;;;10.87;5.90;;;;;;;4.57;66.95;96218.78;5076705;28;20441;-85
2021/04/26 04:00:04;;;;;;;20.03;6.50;;;;;;;4.58;67.06;96225.53;5076460;28;20450;-85
2021/04/26 04:02:30;;;;;;;13.47;6.67;;;;;;;4.67;66.16;96223.25;5077131;28;20528;-86
2021/04/26 04:04:57;;;;;;;7.43;6.13;;;;;;;4.57;66.62;96216.09;5076089;28;20825;-85
2021/04/26 04:07:25;;;;;;;10.20;6.03;;;;;;;4.56;67.03;96220.00;5077046;28;20451;-86
2021/04/26 04:09:51;;;;;;;16.27;6.93;;;;;;;4.62;66.23;96215.31;5077235;28;20416;-85
2021/04/26 04:12:17;;;;;;;8.43;5.73;;;;;;;4.61;66.31;96211.91;5077124;28;20433;-85
2021/04/26 04:14:43;;;;;;;9.03;6.20;;;;;;;4.58;66.25;96222.88;5076882;28;21013;-84
2021/04/26 04:17:09;;;;;;;12.33;6.53;;;;;;;4.56;66.15;96212.72;5076664;28;20461;-86
2021/04/26 04:19:35;;;;;;;9.90;6.43;;;;;;;4.56;66.24;96217.31;5076863;28;20837;-87
2021/04/26 04:22:03;;;;;;;7.67;6.20;;;;;;;4.44;66.35;96208.72;5075675;28;20444;-86
2021/04/26 04:24:29;;;;;;;9.90;5.27;;;;;;;4.49;66.15;96212.53;5077147;28;20833;-86
2021/04/26 04:26:55;;;;;;;9.67;6.73;;;;;;;4.63;66.09;96203.41;5077555;28;20516;-86
2021/04/26 04:29:22;;;;;;;8.27;4.90;;;;;;;4.75;65.27;96208.09;5078006;28;20437;-87
2021/04/26 04:31:48;;;;;;;10.30;5.73;;;;;;;4.73;64.99;96205.19;5077564;28;20444;-87
2021/04/26 04:34:14;;;;;;;16.97;6.43;;;;;;;4.81;64.66;96205.38;5078622;28;20989;-86
2021/04/26 04:36:40;;;;;;;15.77;6.13;;;;;;;4.96;64.13;96207.59;5082105;28;20560;-86
2021/04/26 04:39:07;;;;;;;10.37;4.97;;;;;;;4.96;63.64;96211.00;5078864;28;20532;-87
2021/04/26 04:41:33;;;;;;;9.47;5.63;;;;;;;5.01;63.27;96201.47;5077541;28;20447;-86
2021/04/26 04:44:00;;;;;;;7.90;5.50;;;;;;;5.13;62.06;96206.16;5077905;28;20460;-86
2021/04/26 04:46:26;;;;;;;9.23;5.07;;;;;;;5.33;61.05;96223.63;5077348;28;20463;-87
2021/04/26 04:48:52;;;;;;;12.67;5.40;;;;;;;5.56;60.53;96216.72;5077239;28;20443;-86
2021/04/26 04:51:18;;;;;;;9.57;5.60;;;;;;;5.77;59.10;96214.94;5076509;28;20419;-87
2021/04/26 04:53:45;;;;;;;11.70;5.10;;;;;;;5.92;57.86;96225.19;5076398;28;20480;-86
2021/04/26 04:56:12;;;;;;;10.17;4.57;;;;;;;5.93;58.39;96224.69;5077389;28;20462;-87
2021/04/26 04:58:38;;;;;;;8.40;5.13;;;;;;;6.23;57.09;96219.06;5077307;28;20420;-87
2021/04/26 05:01:04;;;;;;;7.97;5.13;;;;;;;6.62;55.43;96228.34;5076675;28;20408;-87
2021/04/26 05:03:30;;;;;;;11.60;4.80;;;;;;;7.17;54.27;96224.56;5077088;28;20416;-86
2021/04/26 05:05:56;;;;;;;5.57;4.23;;;;;;;7.54;52.69;96218.13;5077086;28;20519;-87
2021/04/26 05:08:22;;;;;;;6.20;4.60;;;;;;;7.69;51.54;96228.28;5077816;28;20424;-88
2021/04/26 05:10:48;;;;;;;10.43;5.37;;;;;;;7.99;50.90;96231.94;5077364;28;20426;-86
2021/04/26 05:13:15;;;;;;;8.87;5.27;;;;;;;8.17;50.06;96227.63;5076822;28;20511;-86
2021/04/26 05:15:42;;;;;;;13.53;5.03;;;;;;;8.37;49.53;96231.53;5078015;28;20565;-86
2021/04/26 05:18:08;;;;;;;6.17;4.20;;;;;;;8.44;49.25;96238.94;5076920;28;20511;-86
2021/04/26 05:20:34;;;;;;;8.60;4.50;;;;;;;8.48;49.39;96234.66;5076689;28;20440;-86
2021/04/26 05:23:01;;;;;;;4.90;4.40;;;;;;;9.25;47.95;96247.22;5076514;28;20478;-87
2021/04/26 05:25:27;;;;;;;8.50;4.50;;;;;;;9.61;46.08;96245.19;5076523;28;20546;-87
2021/04/26 05:27:53;;;;;;;5.23;4.00;;;;;;;9.75;46.01;96247.69;5077095;28;20519;-87
2021/04/26 05:30:21;;;;;;;4.97;3.73;;;;;;;9.95;45.63;96246.81;5076336;28;20526;-87
2021/04/26 05:32:47;;;;;;;13.07;4.13;;;;;;;9.98;44.85;96251.88;5075892;28;20444;-86
2021/04/26 05:35:14;;;;;;;9.60;4.17;;;;;;;10.00;45.41;96245.91;5078140;28;20535;-86
2021/04/26 05:37:40;;;;;;;11.30;5.17;;;;;;;10.22;44.56;96247.94;5080307;28;20436;-84
2021/04/26 05:40:07;;;;;;;12.83;4.90;;;;;;;9.98;45.03;96243.06;5078663;28;20420;-84
2021/04/26 05:42:34;;;;;;;6.87;4.50;;;;;;;9.88;44.34;96256.34;5078934;28;20795;-84
2021/04/26 05:45:00;;;;;;;7.87;4.30;;;;;;;9.42;45.60;96252.13;5079402;28;20487;-84
2021/04/26 05:47:27;;;;;;;11.83;5.20;;;;;;;10.19;45.08;96238.94;5079285;28;20924;-84
2021/04/26 05:49:53;;;;;;;7.63;4.87;;;;;;;10.19;44.90;96243.63;5079186;28;20446;-84
2021/04/26 05:52:19;;;;;;;9.07;5.20;;;;;;;10.29;43.82;96247.22;5080697;28;20531;-84
2021/04/26 05:54:45;;;;;;;10.73;4.73;;;;;;;10.39;44.01;96242.72;5078871;28;20490;-84
2021/04/26 05:57:11;;;;;;;9.93;4.93;;;;;;;11.10;42.08;96244.16;5076621;28;20571;-84
2021/04/26 05:59:37;;;;;;;8.83;4.60;;;;;;;10.94;42.79;96242.03;5081883;28;20450;-83
2021/04/26 06:02:05;;;;;;;4.47;3.83;;;;;;;10.99;43.09;96249.25;5093771;28;20438;-87
2021/04/26 06:04:32;;;;;;;12.80;4.90;;;;;;;11.95;41.17;96253.28;5082120;28;20491;-88
2021/04/26 06:06:59;;;;;;;6.53;4.37;;;;;;;11.84;40.98;96251.72;5082563;28;20479;-89
2021/04/26 06:09:26;;;;;;;8.03;4.80;;;;;;;10.87;42.07;96253.59;5086765;28;20420;-88
2021/04/26 06:11:52;;;;;;;19.30;6.40;;;;;;;11.09;42.31;96255.50;5067742;28;20480;-86
2021/04/26 06:14:18;;;;;;;10.00;4.47;;;;;;;11.00;42.26;96247.97;5079988;28;20469;-88
2021/04/26 06:16:44;;;;;;;5.53;4.73;;;;;;;11.26;42.00;96255.63;5080031;28;20927;-85
2021/04/26 06:19:12;;;;;;;7.63;4.90;;;;;;;10.99;42.65;96251.94;5079964;28;20454;-86
2021/04/26 06:21:42;;;;;;;11.07;6.03;;;;;;;10.84;42.62;96247.28;5082115;28;20413;-87
2021/04/26 06:24:10;;;;;;;8.20;4.80;;;;;;;11.36;42.13;96248.38;5081045;28;20413;-87
2021/04/26 06:26:38;;;;;;;8.67;4.83;;;;;;;11.86;41.53;96262.00;5082683;28;20883;-88
2021/04/26 06:29:06;;;;;;;10.30;5.73;;;;;;;12.23;40.09;96269.13;5085691;28;20522;-88
2021/04/26 06:31:34;;;;;;;14.23;5.40;;;;;;;12.60;39.59;96273.50;5082620;28;20440;-88
2021/04/26 06:34:00;;;;;;;9.37;5.03;;;;;;;11.79;40.62;96258.78;5081901;28;20568;-86
2021/04/26 06:36:28;;;;;;;7.20;5.30;;;;;;;11.45;41.05;96252.47;5078099;28;20462;-85
2021/04/26 06:38:57;;;;;;;13.30;5.67;;;;;;;11.52;41.60;96259.81;5079341;28;20426;-86
2021/04/26 06:41:24;;;;;;;10.13;4.63;;;;;;;12.22;40.52;96259.56;5080619;28;20494;-88
2021/04/26 06:43:52;;;;;;;9.00;5.43;;;;;;;12.05;40.85;96257.53;5085645;28;20524;-86
2021/04/26 06:46:22;;;;;;;17.80;4.80;;;;;;;12.30;40.53;96262.94;5082261;28;20469;-86
2021/04/26 06:48:49;;;;;;;13.33;4.67;;;;;;;12.44;39.71;96260.63;5081380;28;20433;-87
2021/04/26 06:51:18;;;;;;;9.77;6.00;;;;;;;12.59;39.62;96255.81;5080378;28;20441;-87
2021/04/26 06:53:45;;;;;;;10.13;5.50;;;;;;;12.68;39.91;96255.19;5078923;28;20833;-88
2021/04/26 06:56:15;;;;;;;9.27;5.03;;;;;;;12.72;39.73;96254.78;5079805;28;20473;-87
2021/04/26 06:58:42;;;;;;;7.17;5.23;;;;;;;12.90;38.90;96259.63;5080720;28;20789;-87
2021/04/26 07:04:06;;;;;;;6.80;5.00;;;;;;;12.68;39.59;96257.91;5080212;28;20954;-86
2021/04/26 07:06:35;;;;;;;12.50;5.67;;;;;;;13.14;38.67;96257.44;5079532;28;20547;-87
2021/04/26 07:09:01;;;;;;;7.57;5.03;;;;;;;13.27;38.22;96251.69;5081135;28;20446;-87
2021/04/26 07:11:28;;;;;;;9.93;5.43;;;;;;;12.78;39.19;96255.97;5080398;28;20426;-87
2021/04/26 07:13:54;;;;;;;9.20;5.60;;;;;;;12.46;39.15;96247.28;5089358;28;20429;-90
2021/04/26 07:16:37;;;;;;;8.67;5.47;;;;;;;12.32;40.44;96247.56;5098006;28;20462;-93
2021/04/26 07:19:10;;;;;;;5.70;5.00;;;;;;;12.61;39.71;96247.84;5094516;28;20406;-90
2021/04/26 07:21:38;;;;;;;11.80;5.93;;;;;;;12.77;39.55;96241.03;5097679;28;20425;-91
2021/04/26 07:24:05;;;;;;;6.93;5.33;;;;;;;12.66;39.50;96246.91;5097564;28;20465;-90
2021/04/26 07:26:32;;;;;;;8.47;5.70;;;;;;;13.08;38.84;96249.56;5096447;28;20541;-88
2021/04/26 07:28:59;;;;;;;9.37;6.17;;;;;;;12.45;40.20;96243.84;5097621;28;20426;-89
2021/04/26 07:31:25;;;;;;;16.17;5.80;;;;;;;12.25;40.52;96253.03;5096154;28;20426;-88
2021/04/26 07:33:51;;;;;;;8.90;5.00;;;;;;;12.30;40.87;96239.31;5096339;28;20441;-89
2021/04/26 07:36:17;;;;;;;8.57;5.63;;;;;;;12.92;39.48;96242.13;5092882;28;20476;-87
2021/04/26 07:38:44;;;;;;;10.30;5.37;;;;;;;13.03;39.40;96241.66;5087691;28;20454;-87
2021/04/26 07:41:10;;;;;;;12.07;5.67;;;;;;;13.08;39.30;96243.38;5086313;28;20464;-87
2021/04/26 07:43:39;;;;;;;9.20;5.13;;;;;;;13.35;39.01;96234.03;5082080;28;20473;-86
2021/04/26 07:46:05;;;;;;;14.57;5.60;;;;;;;12.56;40.54;96239.97;5084809;28;20502;-89
2021/04/26 07:48:31;;;;;;;9.33;5.97;;;;;;;12.45;40.24;96235.75;5087132;28;20452;-90
2021/04/26 07:50:57;;;;;;;8.37;6.63;;;;;;;12.49;40.50;96229.94;5085278;28;20475;-91
2021/04/26 07:53:23;;;;;;;11.10;5.03;;;;;;;12.70;40.19;96230.97;5087493;28;20495;-92
2021/04/26 07:55:50;;;;;;;9.03;5.37;;;;;;;13.13;39.79;96228.91;5083653;28;20468;-90
2021/04/26 07:58:19;;;;;;;8.13;5.20;;;;;;;13.35;39.15;96230.63;5075247;28;20507;-89
2021/04/26 08:00:52;;;;;;;7.87;5.93;;;;;;;13.69;38.68;96232.53;5085034;28;20785;-89
2021/04/26 08:03:20;;;;;;;7.93;5.33;;;;;;;13.71;39.08;96236.09;5085268;28;20469;-92
2021/04/26 08:05:49;;;;;;;13.97;6.37;;;;;;;13.92;37.58;96227.47;5067096;28;20531;-89
2021/04/26 08:08:18;;;;;;;8.87;5.47;;;;;;;13.37;38.58;96230.78;5063539;28;20449;-87
2021/04/26 08:10:44;;;;;;;10.50;6.23;;;;;;;13.15;39.38;96220.94;5064865;28;20498;-90
2021/04/26 08:13:11;;;;;;;11.50;5.87;;;;;;;13.51;38.79;96223.72;5065222;28;20446;-88
2021/04/26 08:15:42;;;;;;;12.30;5.33;;;;;;;13.93;37.48;96224.22;5062599;28;20451;-87
2021/04/26 08:18:10;;;;;;;7.90;5.93;;;;;;;13.55;38.54;96229.47;5062054;28;20411;-89
2021/04/26 08:20:37;;;;;;;12.13;5.73;;;;;;;13.41;39.01;96229.09;5063219;28;20489;-88
2021/04/26 08:23:04;;;;;;;9.20;5.63;;;;;;;13.02;39.76;96224.69;5063255;28;20443;-90
2021/04/26 08:25:32;;;;;;;12.03;6.10;;;;;;;13.85;38.40;96220.88;5068329;28;20656;-92
2021/04/26 08:28:00;;;;;;;10.10;5.83;;;;;;;13.61;38.69;96210.22;5068901;28;20859;-90
2021/04/26 08:30:29;;;;;;;8.67;6.17;;;;;;;12.86;39.83;96215.28;5074921;28;20434;-90
2021/04/26 08:32:58;;;;;;;7.90;6.23;;;;;;;12.77;40.08;96200.41;5084716;28;20930;-92
2021/04/26 08:35:26;;;;;;;9.37;5.90;;;;;;;12.88;40.06;96205.31;5090317;28;20473;-93
2021/04/26 08:37:52;;;;;;;6.87;5.43;;;;;;;12.87;40.36;96201.19;5095661;28;20442;-91
2021/04/26 08:40:19;;;;;;;8.30;5.67;;;;;;;12.33;41.68;96202.31;5089964;28;20442;-90
2021/04/26 08:42:45;;;;;;;6.83;5.10;;;;;;;12.07;41.92;96206.31;5081003;28;20448;-92
2021/04/26 08:45:12;;;;;;;13.47;5.27;;;;;;;12.03;42.40;96200.56;5083912;28;20913;-89
2021/04/26 08:47:40;;;;;;;12.57;7.00;;;;;;;12.10;42.14;96202.50;5082696;28;20851;-90
2021/04/26 08:50:07;;;;;;;11.83;6.00;;;;;;;11.98;42.75;96196.09;5090576;28;20430;-91
2021/04/26 08:52:41;;;;;;;13.10;7.60;;;;;;;11.74;42.94;96200.25;5085056;28;20919;-90
2021/04/26 08:55:08;;;;;;;10.40;6.10;;;;;;;11.62;43.75;96187.72;5091276;28;20431;-88
2021/04/26 08:57:34;;;;;;;13.23;5.90;;;;;;;11.89;43.35;96193.28;5086112;28;20513;-90
2021/04/26 09:00:00;;;;;;;10.97;5.90;;;;;;;11.95;42.92;96197.22;5084351;28;20453;-90
2021/04/26 09:02:26;;;;;;;12.57;6.37;;;;;;;11.97;42.88;96204.75;5084138;28;20556;-91
2021/04/26 09:04:56;;;;;;;12.47;6.27;;;;;;;11.60;44.21;96203.72;5083125;28;20519;-90
2021/04/26 09:07:24;;;;;;;11.53;5.83;;;;;;;11.73;43.82;96209.63;5084519;28;20508;-91
2021/04/26 09:09:53;;;;;;;9.43;6.07;;;;;;;12.04;43.35;96204.00;5089306;28;20444;-86
2021/04/26 09:12:27;;;;;;;8.43;5.47;;;;;;;11.94;43.59;96203.88;5100843;28;20416;-89
2021/04/26 09:14:55;;;;;;;10.87;6.97;;;;;;;12.16;43.32;96199.56;5100755;28;20453;-89
2021/04/26 09:17:29;;;;;;;16.20;6.20;;;;;;;11.97;43.45;96199.34;5096117;28;20454;-90
2021/04/26 09:19:57;;;;;;;10.67;6.80;;;;;;;11.44;44.75;96200.41;5087763;28;20453;-91
2021/04/26 09:22:41;;;;;;;11.77;6.13;;;;;;;11.59;44.88;96194.22;5089985;28;20452;-90
2021/04/26 09:25:29;;;;;;;13.33;6.70;;;;;;;11.73;44.54;96193.41;5087778;28;20468;-90
2021/04/26 09:27:58;;;;;;;11.93;6.57;;;;;;;11.88;43.89;96194.56;5087030;28;20539;-90
2021/04/26 09:30:54;;;;;;;9.53;5.87;;;;;;;12.06;44.14;96196.06;5091625;28;20495;-90
2021/04/26 09:33:27;;;;;;;8.10;6.10;;;;;;;11.89;43.22;96196.00;5085957;28;20434;-89
2021/04/26 09:36:14;;;;;;;16.67;6.97;;;;;;;11.89;43.93;96194.00;5083220;28;20993;-88
2021/04/26 09:38:43;;;;;;;10.00;6.03;;;;;;;11.95;43.13;96185.66;5082427;28;20441;-89
2021/04/26 09:41:13;;;;;;;12.30;6.30;;;;;;;12.12;42.75;96175.59;5083429;28;20453;-89
2021/04/26 09:43:40;;;;;;;14.07;6.60;;;;;;;11.91;43.88;96179.94;5082574;28;20532;-89
2021/04/26 09:46:07;;;;;;;11.30;7.20;;;;;;;12.36;43.52;96176.84;5086189;28;20490;-90
2021/04/26 09:48:33;;;;;;;10.30;6.37;;;;;;;12.59;42.99;96177.31;5090171;28;20452;-90
2021/04/26 09:51:03;;;;;;;10.67;6.43;;;;;;;12.51;42.58;96178.66;5086448;28;20424;-90
2021/04/26 09:53:30;;;;;;;9.23;6.10;;;;;;;12.58;41.71;96184.00;5083874;28;20432;-88
2021/04/26 09:55:58;;;;;;;8.23;6.03;;;;;;;12.67;41.82;96175.25;5083735;28;20522;-88
2021/04/26 09:58:25;;;;;;;7.93;5.67;;;;;;;12.83;41.26;96173.81;5083939;28;20448;-91
2021/04/26 10:00:51;;;;;;;12.43;6.20;;;;;;;13.00;41.70;96183.19;5087583;28;20503;-90
2021/04/26 10:03:18;;;;;;;12.53;6.23;;;;;;;12.82;41.65;96172.34;5090074;28;20429;-90
2021/04/26 10:05:47;;;;;;;11.87;6.57;;;;;;;12.69;42.11;96178.09;5082401;28;20600;-88
2021/04/26 10:08:14;;;;;;;9.00;5.87;;;;;;;12.82;41.50;96177.06;5083185;28;20449;-88
2021/04/26 10:10:42;;;;;;;9.10;6.37;;;;;;;12.98;41.83;96180.31;5095157;28;20429;-88
2021/04/26 10:13:08;;;;;;;15.13;6.70;;;;;;;13.04;41.47;96175.34;5097076;28;20414;-89
2021/04/26 10:15:36;;;;;;;10.23;6.10;;;;;;;12.95;41.16;96176.00;5093979;28;20466;-90
2021/04/26 10:18:05;;;;;;;9.50;6.67;;;;;;;12.97;40.56;96176.88;5090954;28;20511;-91
2021/04/26 10:20:37;;;;;;;15.27;7.23;;;;;;;13.20;40.74;96169.22;5084893;28;20496;-88
2021/04/26 10:23:03;;;;;;;7.60;5.73;;;;;;;13.64;40.08;96174.56;5085452;28;20484;-90
2021/04/26 10:25:40;;;;;;;10.53;4.93;;;;;;;13.41;39.74;96180.31;5087567;28;21008;-92
2021/04/26 10:28:29;;;;;;;9.60;6.50;;;;;;;13.15;40.23;96172.19;5088091;28;20480;-91
2021/04/26 10:31:02;;;;;;;11.03;6.00;;;;;;;13.18;40.58;96168.34;5089321;28;20863;-93
2021/04/26 10:34:05;;;;;;;8.10;6.03;;;;;;;13.14;41.09;96162.63;5089270;28;20513;-93
2021/04/26 10:36:42;;;;;;;8.70;6.20;;;;;;;13.03;40.67;96169.22;5084448;28;20472;-94
2021/04/26 10:39:09;;;;;;;10.23;6.83;;;;;;;12.96;40.64;96156.50;5082902;28;20493;-88
2021/04/26 10:42:01;;;;;;;11.60;5.37;;;;;;;13.41;39.12;96150.47;5081637;28;20481;-87
2021/04/26 10:44:52;;;;;;;9.60;6.70;;;;;;;13.46;38.36;96146.09;5062759;28;20484;-87
2021/04/26 10:47:26;;;;;;;6.13;5.53;;;;;;;13.78;38.35;96156.63;5089604;28;20618;-88
2021/04/26 10:50:15;;;;;;;10.60;5.73;;;;;;;13.59;38.20;96143.00;5083774;28;20464;-92
2021/04/26 10:52:48;;;;;;;10.57;5.30;;;;;;;13.88;38.75;96143.81;5081793;28;20934;-91
2021/04/26 10:55:45;;;;;;;8.70;6.47;;;;;;;13.97;38.09;96131.53;5080901;28;20490;-91
2021/04/26 10:58:39;;;;;;;15.60;6.93;;;;;;;14.08;37.76;96133.00;5082063;28;20438;-89
2021/04/26 11:01:06;;;;;;;9.90;6.00;;;;;;;14.14;37.80;96123.28;5063452;28;20477;-90
2021/04/26 11:03:40;;;;;;;8.03;5.50;;;;;;;14.12;37.69;96125.88;5083964;28;20769;-90
2021/04/26 11:06:13;;;;;;;11.73;6.10;;;;;;;14.06;37.69;96128.16;5082072;28;20985;-90
2021/04/26 11:08:41;;;;;;;13.10;6.60;;;;;;;13.54;39.58;96127.00;5082292;28;20437;-90
2021/04/26 11:11:12;;;;;;;12.13;6.77;;;;;;;13.80;39.21;96109.94;5081950;28;20463;-89
2021/04/26 11:13:47;;;;;;;7.63;5.40;;;;;;;14.25;37.39;96100.31;5080258;28;20437;-90
2021/04/26 11:16:16;;;;;;;9.10;5.90;;;;;;;14.53;37.83;96101.63;5083320;28;20471;-90
2021/04/26 11:19:03;;;;;;;9.23;6.70;;;;;;;14.29;37.66;96103.28;5084196;28;20452;-90
2021/04/26 11:21:52;;;;;;;9.70;6.03;;;;;;;14.18;35.76;96099.16;5080183;28;20449;-89
2021/04/26 11:24:52;;;;;;;5.93;5.33;;;;;;;14.57;33.84;96096.47;5082391;28;20446;-89
2021/04/26 11:27:20;;;;;;;8.50;5.30;;;;;;;14.50;34.64;96100.78;5060536;28;20489;-89
2021/04/26 11:30:21;;;;;;;11.07;5.20;;;;;;;14.30;34.82;96083.75;5078292;28;20434;-89
2021/04/26 11:33:12;;;;;;;7.53;4.37;;;;;;;14.42;34.00;96078.47;5022417;28;20640;-90
2021/04/26 11:36:09;;;;;;;8.73;5.17;;;;;;;14.33;34.43;96073.75;5080613;28;20492;-94
2021/04/26 11:38:38;;;;;;;8.23;5.43;;;;;;;14.42;34.29;96073.75;5082303;28;20437;-89
2021/04/26 11:41:04;;;;;;;7.63;5.23;;;;;;;14.53;34.85;96052.75;5079215;28;20846;-90
2021/04/26 11:43:30;;;;;;;10.10;5.20;;;;;;;14.82;34.49;96056.81;5080484;28;20461;-90
2021/04/26 11:46:01;;;;;;;9.77;5.67;;;;;;;14.68;35.21;96058.59;5081548;28;20500;-90
2021/04/26 11:48:36;;;;;;;12.13;5.40;;;;;;;14.97;35.07;96045.63;5082228;28;20891;-93